Time;durP1;ratioP1;P1;durP2;ratioP2;P2;SDS_P1;SDS_P2;PMS_P1;PMS_P2;Temp;Humidity;BMP_temperature;BMP_pressure;BME280_temperature;BME280_humidity;BME280_pressure;Samples;Min_cycle;Max_cycle;Signal;HPM_P1;HPM_P2
2024/01/02 00:00:30;;;;;;;8.27;2.60;;;;;;;6.88;100.00;99799.47;5023815;28;20377;-76
2024/01/02 00:02:56;;;;;;;5.50;1.95;;;;;;;6.90;100.00;99784.63;5031748;28;20330;-76
2024/01/02 00:05:21;;;;;;;6.50;2.30;;;;;;;6.92;100.00;99768.97;5032496;28;20033;-76
2024/01/02 00:07:47;;;;;;;4.45;1.77;;;;;;;6.93;100.00;99762.84;5012961;28;20332;-76
2024/01/02 00:10:12;;;;;;;7.18;2.15;;;;;;;6.96;100.00;99754.91;5011841;28;20076;-76
2024/01/02 00:12:38;;;;;;;6.35;2.17;;;;;;;7.01;100.00;99733.88;5012088;28;20054;-76
2024/01/02 00:15:04;;;;;;;6.80;2.17;;;;;;;6.99;100.00;99731.34;5011738;28;20132;-76
2024/01/02 00:17:30;;;;;;;9.38;2.00;;;;;;;6.96;100.00;99699.41;5012535;28;20333;-76
2024/01/02 00:19:55;;;;;;;8.48;2.25;;;;;;;6.98;100.00;99702.78;5014974;28;20037;-76
2024/01/02 00:22:20;;;;;;;5.35;1.85;;;;;;;6.99;100.00;99687.09;5020893;28;20072;-76
2024/01/02 00:24:46;;;;;;;5.20;2.10;;;;;;;6.97;100.00;99681.09;5032645;28;20263;-76
2024/01/02 00:27:11;;;;;;;5.40;1.73;;;;;;;6.97;100.00;99673.31;5031206;28;20382;-76
2024/01/02 00:29:36;;;;;;;3.42;1.70;;;;;;;7.02;100.00;99658.31;5033131;28;20052;-76
2024/01/02 00:32:02;;;;;;;3.60;2.20;;;;;;;7.02;100.00;99652.25;5027247;28;20222;-76
2024/01/02 00:34:27;;;;;;;3.70;1.85;;;;;;;7.01;100.00;99633.19;5014091;28;20037;-76
2024/01/02 00:36:52;;;;;;;3.95;1.65;;;;;;;7.03;100.00;99639.19;5014302;28;20057;-76
2024/01/02 00:39:18;;;;;;;3.53;1.17;;;;;;;7.05;100.00;99628.69;5014219;28;20033;-76
2024/01/02 00:41:43;;;;;;;6.65;1.65;;;;;;;7.04;100.00;99617.44;5024695;28;20029;-76
2024/01/02 00:44:08;;;;;;;6.07;1.48;;;;;;;7.04;100.00;99612.25;5033396;28;20057;-76
2024/01/02 00:46:34;;;;;;;3.20;1.52;;;;;;;7.07;100.00;99601.66;5019521;28;20041;-76
2024/01/02 00:48:59;;;;;;;6.38;1.90;;;;;;;7.05;100.00;99581.84;5031413;28;20041;-76
2024/01/02 00:51:24;;;;;;;3.58;1.40;;;;;;;7.04;100.00;99567.97;5033651;28;20041;-76
2024/01/02 00:53:50;;;;;;;2.83;1.42;;;;;;;7.07;100.00;99552.19;5032887;28;20045;-76
2024/01/02 00:56:15;;;;;;;4.18;1.20;;;;;;;7.10;100.00;99535.63;5033263;28;20062;-76
2024/01/02 00:58:40;;;;;;;2.83;1.45;;;;;;;7.10;100.00;99536.44;5033448;28;20033;-76
2024/01/02 01:01:06;;;;;;;3.33;1.42;;;;;;;7.15;100.00;99533.63;5033259;28;20151;-76
2024/01/02 01:03:31;;;;;;;3.50;1.05;;;;;;;7.14;100.00;99539.75;5031511;28;20061;-76
2024/01/02 01:05:56;;;;;;;3.53;1.00;;;;;;;7.12;100.00;99528.56;5033208;28;20044;-76
2024/01/02 01:08:22;;;;;;;3.22;1.17;;;;;;;7.11;100.00;99519.06;5029317;28;20033;-76
2024/01/02 01:10:47;;;;;;;3.38;1.73;;;;;;;7.08;100.00;99503.59;5032963;28;20067;-76
2024/01/02 01:13:12;;;;;;;3.42;1.23;;;;;;;7.10;100.00;99493.97;5032360;28;20411;-76
2024/01/02 01:15:39;;;;;;;2.03;1.30;;;;;;;7.08;100.00;99483.63;5033731;28;20037;-76
2024/01/02 01:18:04;;;;;;;3.17;1.13;;;;;;;7.09;100.00;99466.22;5032070;28;20060;-76
2024/01/02 01:20:30;;;;;;;2.05;1.25;;;;;;;7.11;100.00;99452.22;5033792;28;20152;-76
2024/01/02 01:22:55;;;;;;;3.47;1.00;;;;;;;7.16;100.00;99440.75;5032725;28;20378;-76
2024/01/02 01:25:21;;;;;;;1.75;0.90;;;;;;;7.18;100.00;99434.53;5035635;28;20070;-76
2024/01/02 01:27:46;;;;;;;1.85;1.10;;;;;;;7.16;100.00;99422.53;5037418;28;20080;-76
2024/01/02 01:30:12;;;;;;;3.20;1.20;;;;;;;7.15;100.00;99407.81;5035941;28;20345;-76
2024/01/02 01:32:37;;;;;;;2.85;1.20;;;;;;;7.10;100.00;99410.66;5035797;28;20320;-76
2024/01/02 01:35:03;;;;;;;1.95;1.27;;;;;;;7.13;100.00;99400.09;5036052;28;20037;-76
2024/01/02 01:37:29;;;;;;;1.15;0.70;;;;;;;7.15;100.00;99386.97;5036995;28;20033;-76
2024/01/02 01:39:56;;;;;;;2.58;0.88;;;;;;;7.14;100.00;99377.50;5034805;28;20072;-76
2024/01/02 01:42:22;;;;;;;1.60;0.85;;;;;;;7.16;100.00;99371.28;5036900;28;20033;-76
2024/01/02 01:44:47;;;;;;;3.90;0.77;;;;;;;7.18;100.00;99364.22;5036757;28;20049;-76
2024/01/02 01:47:13;;;;;;;2.97;1.13;;;;;;;7.17;100.00;99351.28;5036346;28;20140;-76
2024/01/02 01:49:38;;;;;;;0.98;0.82;;;;;;;7.18;100.00;99340.78;5036394;28;20029;-76
2024/01/02 01:52:05;;;;;;;4.07;0.95;;;;;;;7.18;100.00;99337.34;5036479;28;20033;-76
2024/01/02 01:54:31;;;;;;;2.03;0.70;;;;;;;7.18;100.00;99321.75;5035820;28;20043;-76
2024/01/02 01:56:57;;;;;;;0.98;0.77;;;;;;;7.20;100.00;99322.50;5035729;28;20379;-76
2024/01/02 01:59:22;;;;;;;2.38;0.80;;;;;;;7.21;100.00;99313.78;5020661;28;20046;-76
2024/01/02 02:01:49;;;;;;;1.02;0.90;;;;;;;7.21;100.00;99303.38;5036581;28;20252;-76
2024/01/02 02:04:15;;;;;;;1.83;0.80;;;;;;;7.21;100.00;99292.94;5036027;28;20720;-76
2024/01/02 02:06:41;;;;;;;3.58;0.93;;;;;;;7.20;100.00;99273.84;5036477;28;20037;-76
2024/01/02 02:09:06;;;;;;;1.63;0.90;;;;;;;7.23;100.00;99278.91;5036026;28;20037;-76
2024/01/02 02:11:33;;;;;;;0.63;0.63;;;;;;;7.22;100.00;99272.03;5030050;28;20053;-76
2024/01/02 02:13:59;;;;;;;1.85;0.70;;;;;;;7.24;100.00;99264.13;5015922;28;20038;-76
2024/01/02 02:16:24;;;;;;;2.05;1.08;;;;;;;7.27;100.00;99254.41;5016822;28;20060;-76
2024/01/02 02:18:49;;;;;;;1.10;0.70;;;;;;;7.27;100.00;99230.13;5016186;28;20034;-76
2024/01/02 02:21:15;;;;;;;0.75;0.75;;;;;;;7.27;100.00;99230.97;5028698;28;20077;-76
2024/01/02 02:23:40;;;;;;;4.20;1.70;;;;;;;7.24;100.00;99223.34;5036473;28;20044;-76
2024/01/02 02:26:05;;;;;;;1.08;0.80;;;;;;;7.29;100.00;99210.91;5034488;28;20045;-76
2024/01/02 02:28:31;;;;;;;1.23;0.50;;;;;;;7.37;100.00;99199.22;5036042;28;20071;-76
2024/01/02 02:30:56;;;;;;;1.17;0.73;;;;;;;7.41;100.00;99191.16;5033431;28;20381;-76
2024/01/02 02:33:21;;;;;;;1.88;0.80;;;;;;;7.46;100.00;99168.31;5036123;28;20064;-76
2024/01/02 02:35:47;;;;;;;1.77;0.70;;;;;;;7.47;100.00;99162.19;5027272;28;20110;-76
2024/01/02 02:38:12;;;;;;;1.52;0.70;;;;;;;7.47;100.00;99156.97;5035399;28;20040;-76
2024/01/02 02:40:38;;;;;;;0.80;0.50;;;;;;;7.47;100.00;99154.34;5033871;28;20037;-76
2024/01/02 02:43:04;;;;;;;1.25;0.90;;;;;;;7.46;100.00;99157.06;5015544;28;20349;-76
2024/01/02 02:45:29;;;;;;;1.27;0.75;;;;;;;7.46;100.00;99142.28;5014616;28;20025;-76
2024/01/02 02:47:54;;;;;;;2.17;0.68;;;;;;;7.43;100.00;99136.41;5033992;28;20025;-76
2024/01/02 02:50:20;;;;;;;0.90;0.57;;;;;;;7.45;100.00;99129.34;5035667;28;20038;-76
2024/01/02 02:52:45;;;;;;;0.88;0.80;;;;;;;7.44;100.00;99127.63;5020681;28;20026;-76
2024/01/02 02:55:10;;;;;;;4.03;0.80;;;;;;;7.40;100.00;99115.72;5013876;28;20033;-76
2024/01/02 02:57:36;;;;;;;0.57;0.57;;;;;;;7.39;100.00;99108.84;5016030;28;20379;-76
2024/01/02 03:00:03;;;;;;;1.10;0.95;;;;;;;7.42;100.00;99108.66;5014512;28;20033;-76
2024/01/02 03:02:29;;;;;;;0.93;0.60;;;;;;;7.41;100.00;99110.44;5028143;28;20048;-76
2024/01/02 03:04:54;;;;;;;0.85;0.82;;;;;;;7.41;100.00;99115.63;5034791;28;20029;-76
2024/01/02 03:07:20;;;;;;;1.65;0.70;;;;;;;7.43;100.00;99094.72;5026569;28;20048;-76
2024/01/02 03:09:45;;;;;;;1.00;0.60;;;;;;;7.46;100.00;99087.56;5015392;28;20474;-76
2024/01/02 03:12:14;;;;;;;0.60;0.60;;;;;;;7.46;100.00;99071.94;5014994;28;20046;-76
2024/01/02 03:14:40;;;;;;;0.43;0.40;;;;;;;7.47;100.00;99068.41;5015647;28;20297;-76
2024/01/02 03:17:05;;;;;;;0.60;0.60;;;;;;;7.47;100.00;99068.41;5017103;28;20044;-76
2024/01/02 03:19:31;;;;;;;0.55;0.55;;;;;;;7.47;100.00;99071.00;5042150;28;20052;-76
2024/01/02 03:21:56;;;;;;;0.50;0.50;;;;;;;7.49;100.00;99071.78;5033582;28;20075;-76
2024/01/02 03:24:22;;;;;;;0.77;0.70;;;;;;;7.50;100.00;99057.81;5034571;28;20386;-76
2024/01/02 03:26:47;;;;;;;0.70;0.70;;;;;;;7.55;100.00;99036.75;5037467;28;20037;-77
2024/01/02 03:29:12;;;;;;;1.10;0.90;;;;;;;7.58;100.00;99040.91;5035592;28;20029;-76
2024/01/02 03:31:38;;;;;;;0.77;0.77;;;;;;;7.54;100.00;99040.25;5036647;28;20075;-76
2024/01/02 03:34:03;;;;;;;0.70;0.70;;;;;;;7.55;100.00;99051.50;5021428;28;20044;-76
2024/01/02 03:36:28;;;;;;;1.00;0.90;;;;;;;7.58;100.00;99056.56;5021554;28;20042;-76
2024/01/02 03:38:54;;;;;;;1.80;0.98;;;;;;;7.58;100.00;99053.94;5034233;28;20112;-76
2024/01/02 03:41:20;;;;;;;0.68;0.68;;;;;;;7.60;100.00;99023.44;5031383;28;20105;-76
2024/01/02 03:43:45;;;;;;;0.60;0.60;;;;;;;7.62;100.00;99022.44;5034859;28;20106;-76
2024/01/02 03:46:11;;;;;;;0.90;0.90;;;;;;;7.66;100.00;99031.75;5033666;28;20244;-76
2024/01/02 03:48:37;;;;;;;1.30;1.05;;;;;;;7.68;100.00;99044.69;5019446;28;20083;-76
2024/01/02 03:51:03;;;;;;;1.00;1.00;;;;;;;7.71;100.00;99047.09;5029725;28;20281;-76
2024/01/02 03:53:28;;;;;;;1.05;1.05;;;;;;;7.73;100.00;99024.44;5031991;28;20049;-76
2024/01/02 03:55:57;;;;;;;1.05;0.95;;;;;;;7.75;100.00;99019.09;5014245;28;20100;-76
2024/01/02 03:58:22;;;;;;;1.50;1.10;;;;;;;7.77;100.00;99005.06;5014617;28;20386;-76
2024/01/02 04:00:50;;;;;;;1.10;1.00;;;;;;;7.81;100.00;98990.91;5014421;28;20065;-76
2024/01/02 04:03:15;;;;;;;1.13;0.70;;;;;;;7.84;100.00;98988.16;5024547;28;20033;-76
2024/01/02 04:05:40;;;;;;;2.65;0.70;;;;;;;7.88;100.00;99005.28;5034396;28;20057;-76
2024/01/02 04:08:06;;;;;;;0.68;0.68;;;;;;;7.93;100.00;99009.38;5032176;28;20030;-76
2024/01/02 04:10:31;;;;;;;0.70;0.70;;;;;;;7.95;100.00;99010.13;5039618;28;20217;-76
2024/01/02 04:12:56;;;;;;;0.75;0.73;;;;;;;7.98;100.00;99002.13;5053437;28;20048;-76
2024/01/02 04:15:22;;;;;;;0.80;0.80;;;;;;;8.01;100.00;99007.16;5053971;28;20020;-76
2024/01/02 04:17:47;;;;;;;0.70;0.70;;;;;;;8.03;100.00;99018.34;5053795;28;20025;-76
2024/01/02 04:20:12;;;;;;;4.32;3.92;;;;;;;8.04;100.00;98996.53;5053459;28;20048;-76
2024/01/02 04:22:39;;;;;;;1.52;1.42;;;;;;;8.05;100.00;98996.44;5053723;28;20063;-76
2024/01/02 04:25:06;;;;;;;1.20;1.20;;;;;;;8.08;100.00;99011.09;5053050;28;20032;-76
2024/01/02 04:27:31;;;;;;;1.13;1.13;;;;;;;8.14;100.00;99002.88;5053236;28;20355;-76
2024/01/02 04:29:57;;;;;;;6.63;0.90;;;;;;;8.15;100.00;99001.97;5053114;28;20032;-76
2024/01/02 04:32:22;;;;;;;1.73;1.20;;;;;;;8.19;100.00;99000.84;5053754;28;20092;-76
2024/01/02 04:34:47;;;;;;;1.45;1.30;;;;;;;8.27;100.00;99010.81;5053744;28;20032;-76
2024/01/02 04:37:13;;;;;;;1.20;1.20;;;;;;;8.27;100.00;99001.22;5051166;28;20025;-76
2024/01/02 04:39:38;;;;;;;2.85;1.40;;;;;;;8.30;100.00;99001.97;5038572;28;20040;-76
2024/01/02 04:42:04;;;;;;;1.38;1.27;;;;;;;8.36;100.00;99001.59;5031231;28;20037;-76
2024/01/02 04:44:29;;;;;;;1.67;1.58;;;;;;;8.40;100.00;99011.75;5014226;28;20243;-76
2024/01/02 04:46:54;;;;;;;1.75;1.65;;;;;;;8.42;100.00;99012.53;5013607;28;20030;-76
2024/01/02 04:49:20;;;;;;;1.90;1.80;;;;;;;8.45;100.00;99011.50;5013579;28;20064;-76
2024/01/02 04:51:45;;;;;;;2.25;1.95;;;;;;;8.48;100.00;99021.75;5013909;28;20120;-76
2024/01/02 04:54:11;;;;;;;2.45;2.28;;;;;;;8.55;100.00;99002.19;5021634;28;20037;-76
2024/01/02 04:56:36;;;;;;;6.00;3.20;;;;;;;8.57;100.00;98992.50;5031423;28;20052;-76
2024/01/02 04:59:02;;;;;;;3.88;2.85;;;;;;;8.62;100.00;98994.78;5035035;28;20061;-76
2024/01/02 05:01:27;;;;;;;3.65;3.35;;;;;;;8.64;100.00;99009.44;5048542;28;20044;-76
2024/01/02 05:03:52;;;;;;;3.78;3.25;;;;;;;8.66;100.00;99006.75;5046122;28;20037;-76
2024/01/02 05:06:18;;;;;;;5.50;2.47;;;;;;;8.70;100.00;99010.00;5037245;28;20228;-76
2024/01/02 05:08:43;;;;;;;8.48;2.90;;;;;;;8.77;100.00;99021.75;5037219;28;20049;-76
2024/01/02 05:11:08;;;;;;;3.00;1.92;;;;;;;8.96;100.00;99024.03;5037049;28;20037;-76
2024/01/02 05:13:34;;;;;;;9.55;2.42;;;;;;;9.00;100.00;99012.44;5037236;28;20206;-76
2024/01/02 05:15:59;;;;;;;15.15;2.90;;;;;;;9.07;100.00;99023.34;5034994;28;20155;-76
2024/01/02 05:18:25;;;;;;;15.90;3.47;;;;;;;9.11;100.00;99020.44;5036310;28;20276;-76
2024/01/02 05:20:50;;;;;;;23.33;3.38;;;;;;;9.17;100.00;99022.66;5031849;28;20579;-76
2024/01/02 05:23:15;;;;;;;27.20;3.00;;;;;;;9.29;100.00;99039.31;5026937;28;20416;-76
2024/01/02 05:25:41;;;;;;;37.38;4.15;;;;;;;9.44;100.00;99042.75;5017360;28;20048;-76
2024/01/02 05:28:06;;;;;;;23.25;3.85;;;;;;;9.51;100.00;99048.38;5032740;28;20041;-76
2024/01/02 05:30:32;;;;;;;28.58;3.25;;;;;;;9.52;100.00;99047.47;5035916;28;20323;-76
2024/01/02 05:32:57;;;;;;;33.10;4.07;;;;;;;9.57;100.00;99042.78;5023461;28;20295;-76
2024/01/02 05:35:22;;;;;;;34.08;3.95;;;;;;;9.64;100.00;99049.28;5017446;28;20038;-76
2024/01/02 05:37:48;;;;;;;34.33;4.15;;;;;;;9.67;100.00;99059.53;5029006;28;20217;-76
2024/01/02 05:40:13;;;;;;;24.50;3.85;;;;;;;9.73;100.00;99061.75;5017754;28;20037;-76
2024/01/02 05:42:38;;;;;;;23.20;3.10;;;;;;;9.87;100.00;99070.47;5017637;28;20040;-76
2024/01/02 05:45:04;;;;;;;20.25;2.90;;;;;;;9.86;100.00;99072.25;5035501;28;20116;-76
2024/01/02 05:47:30;;;;;;;26.52;3.00;;;;;;;9.94;100.00;99076.97;5033934;28;20040;-76
2024/01/02 05:49:55;;;;;;;26.80;3.67;;;;;;;9.96;100.00;99081.13;5034651;28;20017;-76
2024/01/02 05:52:20;;;;;;;22.10;3.03;;;;;;;9.95;100.00;99069.03;5029365;28;20052;-76
2024/01/02 05:54:46;;;;;;;22.27;3.28;;;;;;;9.92;100.00;99073.63;5035462;28;20025;-76
2024/01/02 05:57:11;;;;;;;24.65;3.17;;;;;;;9.95;100.00;99070.78;5034847;28;20210;-76
2024/01/02 05:59:37;;;;;;;23.58;3.55;;;;;;;10.02;100.00;99079.06;5035517;28;20096;-76
2024/01/02 06:02:02;;;;;;;32.58;3.05;;;;;;;10.02;100.00;99086.91;5032229;28;20190;-76
2024/01/02 06:04:28;;;;;;;29.15;3.40;;;;;;;10.02;100.00;99097.38;5034534;28;20033;-76
2024/01/02 06:06:53;;;;;;;25.23;4.07;;;;;;;10.03;100.00;99099.88;5027210;28;20171;-76
2024/01/02 06:09:19;;;;;;;28.20;3.85;;;;;;;10.08;100.00;99110.06;5024014;28;20043;-76
2024/01/02 06:11:44;;;;;;;25.20;3.13;;;;;;;10.07;100.00;99111.81;5027655;28;20037;-76
2024/01/02 06:14:11;;;;;;;30.02;4.30;;;;;;;10.06;100.00;99109.28;5035523;28;20118;-76
2024/01/02 06:16:37;;;;;;;28.45;3.55;;;;;;;10.06;100.00;99114.53;5018441;28;20357;-76
2024/01/02 06:19:03;;;;;;;28.70;4.15;;;;;;;10.11;100.00;99113.28;5022326;28;20038;-76
2024/01/02 06:21:28;;;;;;;27.77;3.83;;;;;;;10.16;100.00;99118.22;5022017;28;20061;-76
2024/01/02 06:23:53;;;;;;;27.20;4.13;;;;;;;10.15;100.00;99108.69;5023174;28;20037;-76
2024/01/02 06:26:19;;;;;;;33.25;4.40;;;;;;;10.17;100.00;99123.34;5015807;28;20030;-76
2024/01/02 06:28:44;;;;;;;33.78;4.35;;;;;;;10.18;100.00;99132.03;5025814;28;20139;-76
2024/01/02 06:31:09;;;;;;;31.70;4.53;;;;;;;10.18;100.00;99129.41;5031704;28;20044;-76
2024/01/02 06:33:35;;;;;;;34.08;4.10;;;;;;;10.16;100.00;99124.28;5023903;28;20041;-76
2024/01/02 06:36:00;;;;;;;30.23;4.93;;;;;;;10.17;100.00;99118.13;5033820;28;20037;-76
2024/01/02 06:38:26;;;;;;;35.78;4.47;;;;;;;10.17;100.00;99133.81;5036011;28;20092;-76
2024/01/02 06:40:51;;;;;;;34.72;3.90;;;;;;;10.19;100.00;99128.50;5035196;28;20060;-76
2024/01/02 06:43:16;;;;;;;40.45;4.55;;;;;;;10.19;100.00;99142.41;5035510;28;20032;-76
2024/01/02 06:45:42;;;;;;;37.72;5.30;;;;;;;10.18;100.00;99148.56;5035496;28;20056;-76
2024/01/02 06:48:08;;;;;;;27.05;4.53;;;;;;;10.18;100.00;99135.47;5035179;28;20314;-76
2024/01/02 06:50:33;;;;;;;35.53;4.78;;;;;;;10.14;100.00;99136.63;5034468;28;20041;-76
2024/01/02 06:52:59;;;;;;;37.38;4.85;;;;;;;10.16;100.00;99137.34;5034971;28;20296;-76
2024/01/02 06:55:25;;;;;;;33.40;5.05;;;;;;;10.14;100.00;99144.47;5035548;28;20037;-76
2024/01/02 06:57:51;;;;;;;33.80;4.78;;;;;;;10.14;100.00;99162.78;5035345;28;20064;-76
2024/01/02 07:00:16;;;;;;;31.23;4.47;;;;;;;10.16;100.00;99163.53;5035238;28;20210;-76
2024/01/02 07:02:43;;;;;;;34.42;4.88;;;;;;;10.14;100.00;99162.78;5035384;28;20037;-76
2024/01/02 07:05:12;;;;;;;41.22;4.70;;;;;;;10.12;100.00;99163.84;5034801;28;20148;-76
2024/01/02 07:07:37;;;;;;;25.17;4.57;;;;;;;10.11;100.00;99177.84;5035100;28;20044;-76
2024/01/02 07:10:03;;;;;;;35.63;5.57;;;;;;;10.09;100.00;99159.63;5034789;28;20033;-76
2024/01/02 07:12:28;;;;;;;37.65;4.90;;;;;;;10.08;100.00;99170.22;5034759;28;20033;-76
2024/01/02 07:14:54;;;;;;;43.30;5.15;;;;;;;10.07;100.00;99171.97;5030044;28;20029;-76
2024/01/02 07:17:21;;;;;;;39.00;4.85;;;;;;;10.09;100.00;99185.78;5025373;28;20046;-76
2024/01/02 07:19:47;;;;;;;34.95;4.57;;;;;;;10.08;100.00;99188.53;5027939;28;20073;-76
2024/01/02 07:22:12;;;;;;;41.88;6.95;;;;;;;10.11;100.00;99198.78;5020414;28;20194;-76
2024/01/02 07:24:38;;;;;;;40.10;4.93;;;;;;;10.10;100.00;99200.56;5025615;28;20049;-76
2024/01/02 07:27:03;;;;;;;42.38;5.50;;;;;;;10.09;100.00;99208.50;5020882;28;20418;-76
2024/01/02 07:29:29;;;;;;;37.38;6.10;;;;;;;10.09;100.00;99208.50;5019035;28;20038;-76
2024/01/02 07:31:54;;;;;;;41.53;5.70;;;;;;;10.05;100.00;99217.47;5031672;28;20122;-76
2024/01/02 07:34:20;;;;;;;39.88;5.75;;;;;;;10.05;100.00;99212.25;5031984;28;20332;-76
2024/01/02 07:36:45;;;;;;;33.13;5.10;;;;;;;10.02;100.00;99215.88;5029585;28;20041;-76
2024/01/02 07:39:11;;;;;;;38.55;6.68;;;;;;;10.05;100.00;99214.88;5013098;28;20040;-76
2024/01/02 07:41:36;;;;;;;41.08;5.85;;;;;;;10.07;100.00;99207.75;5020610;28;20296;-76
2024/01/02 07:44:03;;;;;;;34.42;4.68;;;;;;;10.07;100.00;99203.34;5015366;28;20049;-76
2024/01/02 07:46:29;;;;;;;41.47;5.03;;;;;;;10.08;100.00;99214.69;5025026;28;20037;-76
2024/01/02 07:48:54;;;;;;;39.13;5.63;;;;;;;10.09;100.00;99214.56;5015398;28;20045;-76
2024/01/02 07:51:19;;;;;;;36.20;5.18;;;;;;;10.10;100.00;99215.41;5028805;28;20041;-76
2024/01/02 07:53:45;;;;;;;26.55;5.13;;;;;;;10.10;100.00;99213.63;5031525;28;20040;-76
2024/01/02 07:56:10;;;;;;;44.35;5.60;;;;;;;10.11;100.00;99207.44;5032340;28;20044;-76
2024/01/02 07:58:35;;;;;;;32.70;5.38;;;;;;;10.12;100.00;99210.91;5033833;28;20453;-76
2024/01/02 08:01:01;;;;;;;36.35;5.15;;;;;;;10.14;100.00;99198.56;5022594;28;20303;-76
2024/01/02 08:03:26;;;;;;;38.30;5.40;;;;;;;10.14;100.00;99203.81;5023236;28;20037;-76
2024/01/02 08:05:52;;;;;;;25.38;3.88;;;;;;;10.14;100.00;99201.19;5025729;28;20057;-76
2024/01/02 08:08:17;;;;;;;28.60;4.35;;;;;;;10.15;100.00;99195.88;5025056;28;20034;-76
2024/01/02 08:10:42;;;;;;;39.03;6.28;;;;;;;10.16;100.00;99196.69;5015628;28;20040;-76
2024/01/02 08:13:08;;;;;;;26.45;4.05;;;;;;;10.16;100.00;99181.84;5032929;28;20061;-76
2024/01/02 08:15:33;;;;;;;29.85;4.55;;;;;;;10.14;100.00;99173.25;5033528;28;20242;-76
2024/01/02 08:17:59;;;;;;;32.28;4.60;;;;;;;10.11;100.00;99183.91;5025713;28;20075;-76
2024/01/02 08:20:24;;;;;;;37.78;4.35;;;;;;;10.12;100.00;99190.00;5021861;28;20086;-76
2024/01/02 08:22:49;;;;;;;29.35;4.93;;;;;;;10.11;100.00;99183.06;5021630;28;20257;-76
2024/01/02 08:25:15;;;;;;;36.65;5.45;;;;;;;10.10;100.00;99182.25;5028410;28;20055;-76
2024/01/02 08:27:41;;;;;;;30.27;4.47;;;;;;;10.11;100.00;99191.75;5026446;28;20266;-76
2024/01/02 08:30:07;;;;;;;25.88;4.07;;;;;;;10.12;100.00;99169.91;5020845;28;20068;-76
2024/01/02 08:32:32;;;;;;;29.67;4.07;;;;;;;10.10;100.00;99171.78;5025008;28;20277;-76
2024/01/02 08:34:59;;;;;;;24.75;4.85;;;;;;;10.10;100.00;99171.78;5022399;28;20325;-76
2024/01/02 08:37:24;;;;;;;30.58;5.03;;;;;;;10.09;100.00;99164.84;5023858;28;20271;-76
2024/01/02 08:39:50;;;;;;;31.45;4.03;;;;;;;10.07;100.00;99169.34;5023753;28;20089;-76
2024/01/02 08:42:15;;;;;;;26.42;4.15;;;;;;;10.08;100.00;99172.84;5024322;28;20132;-76
2024/01/02 08:44:41;;;;;;;31.45;4.40;;;;;;;10.07;100.00;99177.19;5017001;28;20388;-76
2024/01/02 08:47:06;;;;;;;26.92;4.22;;;;;;;10.06;100.00;99164.22;5018932;28;20052;-76
2024/01/02 08:49:31;;;;;;;31.08;4.68;;;;;;;10.06;100.00;99170.31;5018413;28;20037;-76
2024/01/02 08:51:57;;;;;;;32.75;4.90;;;;;;;10.06;100.00;99169.44;5028598;28;20033;-76
2024/01/02 08:54:22;;;;;;;36.40;5.22;;;;;;;10.07;100.00;99182.44;5030616;28;20041;-76
2024/01/02 08:56:48;;;;;;;34.05;5.97;;;;;;;10.09;100.00;99164.03;5030054;28;20275;-76
2024/01/02 08:59:13;;;;;;;53.60;6.50;;;;;;;10.10;100.00;99165.72;5032068;28;20059;-76
2024/01/02 09:01:38;;;;;;;56.78;6.75;;;;;;;10.11;100.00;99162.97;5032960;28;20033;-76
2024/01/02 09:04:04;;;;;;;49.00;6.65;;;;;;;10.12;100.00;99162.06;5025885;28;20052;-76
2024/01/02 09:06:30;;;;;;;52.13;5.95;;;;;;;10.14;100.00;99156.72;5033277;28;20033;-76
2024/01/02 09:08:58;;;;;;;42.78;6.20;;;;;;;10.16;100.00;99160.91;5028463;28;20333;-76
2024/01/02 09:11:24;;;;;;;47.63;6.50;;;;;;;10.18;100.00;99159.03;5030622;28;20100;-76
2024/01/02 09:13:49;;;;;;;42.20;6.07;;;;;;;10.18;100.00;99159.03;5031721;28;20407;-76
2024/01/02 09:16:15;;;;;;;41.40;6.43;;;;;;;10.20;100.00;99156.31;5028788;28;20393;-76
2024/01/02 09:18:41;;;;;;;46.70;6.07;;;;;;;10.24;100.00;99149.09;5030074;28;20037;-76
2024/01/02 09:21:06;;;;;;;41.80;4.95;;;;;;;10.24;100.00;99155.19;5031877;28;20064;-75
2024/01/02 09:23:34;;;;;;;39.00;6.00;;;;;;;10.26;100.00;99140.22;5032174;28;20044;-75
2024/01/02 09:26:04;;;;;;;39.80;5.85;;;;;;;10.29;100.00;99144.41;5019382;28;20362;-76
2024/01/02 09:28:30;;;;;;;49.42;5.35;;;;;;;10.31;100.00;99134.69;5023848;28;20111;-75
2024/01/02 09:30:56;;;;;;;31.27;4.57;;;;;;;10.32;100.00;99152.91;5022057;28;20033;-75
2024/01/02 09:33:23;;;;;;;30.17;5.30;;;;;;;10.34;100.00;99145.81;5023073;28;20037;-75
2024/01/02 09:35:49;;;;;;;36.08;5.15;;;;;;;10.36;100.00;99158.78;5024903;28;20233;-76
2024/01/02 09:38:15;;;;;;;28.75;4.07;;;;;;;10.37;100.00;99153.47;5022107;28;20029;-76
2024/01/02 09:40:43;;;;;;;28.42;5.55;;;;;;;10.41;100.00;99158.50;5022624;28;20086;-75
2024/01/02 09:43:14;;;;;;;24.63;4.23;;;;;;;10.41;100.00;99154.09;5023126;28;20388;-75
2024/01/02 09:46:04;;;;;;;22.15;3.78;;;;;;;10.41;100.00;99151.47;5028014;28;20314;-76
2024/01/02 09:48:59;;;;;;;27.02;4.22;;;;;;;10.43;100.00;99146.97;5037610;28;20041;-76
2024/01/02 09:51:53;;;;;;;19.95;3.53;;;;;;;10.45;100.00;99147.72;5036647;28;20041;-76
2024/01/02 09:54:36;;;;;;;29.33;4.13;;;;;;;10.44;100.00;99147.81;5034543;28;20029;-76
2024/01/02 09:57:14;;;;;;;25.77;3.85;;;;;;;10.45;100.00;99144.25;5031136;28;20320;-76
2024/01/02 10:00:00;;;;;;;27.08;3.92;;;;;;;10.45;100.00;99152.94;5031505;28;20037;-76
2024/01/02 10:02:37;;;;;;;18.42;3.20;;;;;;;10.45;100.00;99155.56;5031787;28;20087;-76
2024/01/02 10:05:08;;;;;;;20.45;3.33;;;;;;;10.46;100.00;99146.78;5031424;28;20072;-76
2024/01/02 10:08:01;;;;;;;21.55;3.08;;;;;;;10.48;100.00;99138.81;5036119;28;20029;-76
2024/01/02 10:10:48;;;;;;;15.43;3.13;;;;;;;10.47;100.00;99134.53;5030480;28;20037;-76
2024/01/02 10:13:24;;;;;;;24.55;3.72;;;;;;;10.46;100.00;99148.53;5033173;28;20052;-76
2024/01/02 10:15:58;;;;;;;14.43;3.42;;;;;;;10.48;100.00;99141.44;5038209;28;20041;-76
2024/01/02 10:18:43;;;;;;;14.48;3.22;;;;;;;10.47;100.00;99132.72;5030078;28;20029;-76
2024/01/02 10:21:50;;;;;;;18.30;3.88;;;;;;;10.48;100.00;99123.13;5033832;28;20036;-76
2024/01/02 10:24:52;;;;;;;16.73;3.42;;;;;;;10.47;100.00;99124.06;5038208;28;20327;-76
2024/01/02 10:27:54;;;;;;;13.52;2.78;;;;;;;10.46;100.00;99115.38;5012620;28;20075;-76
2024/01/02 10:30:22;;;;;;;11.52;2.80;;;;;;;10.46;100.00;99115.38;5038009;28;20105;-76
2024/01/02 10:32:54;;;;;;;10.85;2.10;;;;;;;10.48;100.00;99107.41;5044425;28;20332;-76
2024/01/02 10:35:47;;;;;;;11.80;2.58;;;;;;;10.49;100.00;99119.53;5043343;28;20043;-75
2024/01/02 10:38:30;;;;;;;16.00;2.78;;;;;;;10.47;100.00;99106.56;5038382;28;20036;-76
2024/01/02 10:41:20;;;;;;;11.70;2.83;;;;;;;10.48;100.00;99091.72;5031207;28;20367;-76
2024/01/02 10:43:51;;;;;;;10.60;3.42;;;;;;;10.47;100.00;99090.84;5040375;28;20040;-76
2024/01/02 10:46:21;;;;;;;8.25;2.97;;;;;;;10.47;100.00;99090.84;5041417;28;20069;-75
2024/01/02 10:49:33;;;;;;;11.18;3.45;;;;;;;10.48;100.00;99068.16;5047124;28;20363;-76
2024/01/02 10:52:13;;;;;;;9.70;3.28;;;;;;;10.49;100.00;99067.19;5010775;28;20064;-75
2024/01/02 10:55:03;;;;;;;6.35;2.40;;;;;;;10.49;100.00;99073.25;5036148;28;20037;-76
2024/01/02 10:57:44;;;;;;;6.20;2.80;;;;;;;10.46;100.00;99063.03;5034490;28;20056;-76
2024/01/02 11:00:20;;;;;;;7.25;2.70;;;;;;;10.44;100.00;99066.69;5030174;28;20065;-76
2024/01/02 11:02:53;;;;;;;6.68;2.60;;;;;;;10.45;100.00;99061.34;5029867;28;20041;-76
2024/01/02 11:05:29;;;;;;;5.57;2.95;;;;;;;10.44;100.00;99048.34;5030102;28;20096;-76
2024/01/02 11:08:04;;;;;;;4.78;3.05;;;;;;;10.43;100.00;99036.22;5030149;28;20272;-76
2024/01/02 11:10:34;;;;;;;4.07;3.60;;;;;;;10.45;100.00;99037.78;5030848;28;20029;-76
2024/01/02 11:13:06;;;;;;;4.68;4.20;;;;;;;10.43;100.00;99036.22;5029078;28;20041;-76
2024/01/02 11:15:35;;;;;;;6.05;4.18;;;;;;;10.43;100.00;99023.97;5030214;28;20439;-76
2024/01/02 11:18:03;;;;;;;4.32;4.03;;;;;;;10.44;100.00;99027.41;5029582;28;20029;-76
2024/01/02 11:20:59;;;;;;;5.68;4.68;;;;;;;10.43;100.00;99016.13;5030666;28;20240;-76
2024/01/02 11:23:29;;;;;;;5.55;4.32;;;;;;;10.44;100.00;99019.56;5029739;28;20033;-76
2024/01/02 11:26:14;;;;;;;5.50;5.05;;;;;;;10.42;100.00;99008.38;5029742;28;20025;-76
2024/01/02 11:28:41;;;;;;;4.75;4.35;;;;;;;10.41;100.00;99010.16;5029933;28;20112;-76